Aviation Digital Data Service (ADDS)

Output produced by METARs form (1228 UTC 22 March 2019)
found at http://www.aviationweather.gov/metar/data/
 
METAR text: RJGG 221200Z 31033KT 9999 FEW030 BKN/// 09/01 Q1012 TEMPO 31034G45KT
Conditions at: RJGG (NAGOYA/CHUBU , JP) observed 1200 UTC 22 March 2019
Temperature: 9.0°C (48°F)
Dewpoint: 1.0°C (34°F) [RH = 57%]
Pressure (altimeter): 29.88 inches Hg (1012.0 mb)
Winds: from the NW (310 degrees) at 38 MPH (33 knots; 17.0 m/s)
Visibility: 6 or more miles (10+ km)
Ceiling: at least 12,000 feet AGL
Clouds: few clouds at 3000 feet AGL
Weather: no significant weather observed at this time

METAR text: RJGG 221130Z 31032KT 9999 FEW030 BKN/// 09/01 Q1011 TEMPO 31034G45KT
Conditions at: RJGG (NAGOYA/CHUBU , JP) observed 1130 UTC 22 March 2019
Temperature: 9.0°C (48°F)
Dewpoint: 1.0°C (34°F) [RH = 57%]
Pressure (altimeter): 29.85 inches Hg (1011.0 mb)
Winds: from the NW (310 degrees) at 37 MPH (32 knots; 16.5 m/s)
Visibility: 6 or more miles (10+ km)
Ceiling: at least 12,000 feet AGL
Clouds: few clouds at 3000 feet AGL
Weather: no significant weather observed at this time

METAR text: RJGG 221100Z 31032KT 9999 FEW030 BKN/// 09/02 Q1011 TEMPO 31034G45KT
Conditions at: RJGG (NAGOYA/CHUBU , JP) observed 1100 UTC 22 March 2019
Temperature: 9.0°C (48°F)
Dewpoint: 2.0°C (36°F) [RH = 61%]
Pressure (altimeter): 29.85 inches Hg (1011.0 mb)
Winds: from the NW (310 degrees) at 37 MPH (32 knots; 16.5 m/s)
Visibility: 6 or more miles (10+ km)
Ceiling: at least 12,000 feet AGL
Clouds: few clouds at 3000 feet AGL
Weather: no significant weather observed at this time

METAR text: RJGG 221030Z 31030KT 9999 FEW030 BKN/// 09/02 Q1011 TEMPO 31034G45KT
Conditions at: RJGG (NAGOYA/CHUBU , JP) observed 1030 UTC 22 March 2019
Temperature: 9.0°C (48°F)
Dewpoint: 2.0°C (36°F) [RH = 61%]
Pressure (altimeter): 29.85 inches Hg (1011.0 mb)
Winds: from the NW (310 degrees) at 34 MPH (30 knots; 15.4 m/s)
Visibility: 6 or more miles (10+ km)
Ceiling: at least 12,000 feet AGL
Clouds: few clouds at 3000 feet AGL
Weather: no significant weather observed at this time

METAR text: RJGG 221000Z 31028KT 9999 FEW030 BKN/// 09/02 Q1010 TEMPO 31034G45KT
Conditions at: RJGG (NAGOYA/CHUBU , JP) observed 1000 UTC 22 March 2019
Temperature: 9.0°C (48°F)
Dewpoint: 2.0°C (36°F) [RH = 61%]
Pressure (altimeter): 29.82 inches Hg (1010.0 mb)
Winds: from the NW (310 degrees) at 32 MPH (28 knots; 14.4 m/s)
Visibility: 6 or more miles (10+ km)
Ceiling: at least 12,000 feet AGL
Clouds: few clouds at 3000 feet AGL
Weather: no significant weather observed at this time

METAR text: RJGG 220930Z 31029KT 9999 FEW030 BKN/// 10/04 Q1010 TEMPO 31034G45KT
Conditions at: RJGG (NAGOYA/CHUBU , JP) observed 0930 UTC 22 March 2019
Temperature: 10.0°C (50°F)
Dewpoint: 4.0°C (39°F) [RH = 66%]
Pressure (altimeter): 29.82 inches Hg (1010.0 mb)
Winds: from the NW (310 degrees) at 33 MPH (29 knots; 14.9 m/s)
Visibility: 6 or more miles (10+ km)
Ceiling: at least 12,000 feet AGL
Clouds: few clouds at 3000 feet AGL
Weather: no significant weather observed at this time

METAR text: RJGG 220900Z 31028KT 9999 FEW030 BKN/// 10/02 Q1009 TEMPO 31034G45KT
Conditions at: RJGG (NAGOYA/CHUBU , JP) observed 0900 UTC 22 March 2019
Temperature: 10.0°C (50°F)
Dewpoint: 2.0°C (36°F) [RH = 57%]
Pressure (altimeter): 29.79 inches Hg (1009.0 mb)
Winds: from the NW (310 degrees) at 32 MPH (28 knots; 14.4 m/s)
Visibility: 6 or more miles (10+ km)
Ceiling: at least 12,000 feet AGL
Clouds: few clouds at 3000 feet AGL
Weather: no significant weather observed at this time

METAR text: RJGG 220830Z 31033KT 9999 FEW030 SCT/// 10/03 Q1009 TEMPO 31034G45KT
Conditions at: RJGG (NAGOYA/CHUBU , JP) observed 0830 UTC 22 March 2019
Temperature: 10.0°C (50°F)
Dewpoint: 3.0°C (37°F) [RH = 62%]
Pressure (altimeter): 29.79 inches Hg (1009.0 mb)
Winds: from the NW (310 degrees) at 38 MPH (33 knots; 17.0 m/s)
Visibility: 6 or more miles (10+ km)
Ceiling: at least 12,000 feet AGL
Clouds: few clouds at 3000 feet AGL
Weather: no significant weather observed at this time

METAR text: RJGG 220800Z 31034KT 9999 FEW030 SCT/// 10/03 Q1009 TEMPO 31034G45KT
Conditions at: RJGG (NAGOYA/CHUBU , JP) observed 0800 UTC 22 March 2019
Temperature: 10.0°C (50°F)
Dewpoint: 3.0°C (37°F) [RH = 62%]
Pressure (altimeter): 29.79 inches Hg (1009.0 mb)
Winds: from the NW (310 degrees) at 39 MPH (34 knots; 17.5 m/s)
Visibility: 6 or more miles (10+ km)
Ceiling: at least 12,000 feet AGL
Clouds: few clouds at 3000 feet AGL
Weather: no significant weather observed at this time

METAR text: RJGG 220730Z 31034KT 9999 FEW030 SCT/// 11/03 Q1008 TEMPO 31034G45KT
Conditions at: RJGG (NAGOYA/CHUBU , JP) observed 0730 UTC 22 March 2019
Temperature: 11.0°C (52°F)
Dewpoint: 3.0°C (37°F) [RH = 58%]
Pressure (altimeter): 29.76 inches Hg (1008.0 mb)
Winds: from the NW (310 degrees) at 39 MPH (34 knots; 17.5 m/s)
Visibility: 6 or more miles (10+ km)
Ceiling: at least 12,000 feet AGL
Clouds: few clouds at 3000 feet AGL
Weather: no significant weather observed at this time

METAR text: RJGG 220700Z 31032KT 9999 FEW030 SCT/// 11/03 Q1008 TEMPO 31034G45KT
Conditions at: RJGG (NAGOYA/CHUBU , JP) observed 0700 UTC 22 March 2019
Temperature: 11.0°C (52°F)
Dewpoint: 3.0°C (37°F) [RH = 58%]
Pressure (altimeter): 29.76 inches Hg (1008.0 mb)
Winds: from the NW (310 degrees) at 37 MPH (32 knots; 16.5 m/s)
Visibility: 6 or more miles (10+ km)
Ceiling: at least 12,000 feet AGL
Clouds: few clouds at 3000 feet AGL
Weather: no significant weather observed at this time

METAR text: RJGG 220630Z 31037KT 9999 FEW030 11/03 Q1008 TEMPO 31035G45KT
Conditions at: RJGG (NAGOYA/CHUBU , JP) observed 0630 UTC 22 March 2019
Temperature: 11.0°C (52°F)
Dewpoint: 3.0°C (37°F) [RH = 58%]
Pressure (altimeter): 29.76 inches Hg (1008.0 mb)
Winds: from the NW (310 degrees) at 43 MPH (37 knots; 19.0 m/s)
Visibility: 6 or more miles (10+ km)
Ceiling: at least 12,000 feet AGL
Clouds: few clouds at 3000 feet AGL
Weather: no significant weather observed at this time

METAR text: RJGG 220600Z 31033KT 9999 FEW030 12/04 Q1008 TEMPO 31034G45KT
Conditions at: RJGG (NAGOYA/CHUBU , JP) observed 0600 UTC 22 March 2019
Temperature: 12.0°C (54°F)
Dewpoint: 4.0°C (39°F) [RH = 58%]
Pressure (altimeter): 29.76 inches Hg (1008.0 mb)
Winds: from the NW (310 degrees) at 38 MPH (33 knots; 17.0 m/s)
Visibility: 6 or more miles (10+ km)
Ceiling: at least 12,000 feet AGL
Clouds: few clouds at 3000 feet AGL
Weather: no significant weather observed at this time

METAR text: RJGG 220530Z 31031KT 9999 FEW020 SCT/// 12/04 Q1007 TEMPO 31034G45KT
Conditions at: RJGG (NAGOYA/CHUBU , JP) observed 0530 UTC 22 March 2019
Temperature: 12.0°C (54°F)
Dewpoint: 4.0°C (39°F) [RH = 58%]
Pressure (altimeter): 29.73 inches Hg (1007.0 mb)
Winds: from the NW (310 degrees) at 36 MPH (31 knots; 15.9 m/s)
Visibility: 6 or more miles (10+ km)
Ceiling: at least 12,000 feet AGL
Clouds: few clouds at 2000 feet AGL
Weather: no significant weather observed at this time

METAR text: RJGG 220500Z 31032KT 9999 FEW020 SCT180 BKN/// 12/04 Q1007 TEMPO 31034G45KT
Conditions at: RJGG (NAGOYA/CHUBU , JP) observed 0500 UTC 22 March 2019
Temperature: 12.0°C (54°F)
Dewpoint: 4.0°C (39°F) [RH = 58%]
Pressure (altimeter): 29.73 inches Hg (1007.0 mb)
Winds: from the NW (310 degrees) at 37 MPH (32 knots; 16.5 m/s)
Visibility: 6 or more miles (10+ km)
Ceiling: at least 12,000 feet AGL
Clouds: few clouds at 2000 feet AGL
scattered clouds at 18000 feet AGL
Weather: no significant weather observed at this time

METAR text: RJGG 220430Z 31029KT 9999 FEW020 BKN/// 12/05 Q1007 TEMPO 32028G38KT
Conditions at: RJGG (NAGOYA/CHUBU , JP) observed 0430 UTC 22 March 2019
Temperature: 12.0°C (54°F)
Dewpoint: 5.0°C (41°F) [RH = 62%]
Pressure (altimeter): 29.73 inches Hg (1007.0 mb)
Winds: from the NW (310 degrees) at 33 MPH (29 knots; 14.9 m/s)
Visibility: 6 or more miles (10+ km)
Ceiling: at least 12,000 feet AGL
Clouds: few clouds at 2000 feet AGL
Weather: no significant weather observed at this time

METAR text: RJGG 220400Z 30028KT 9999 FEW020 BKN/// 13/06 Q1007 TEMPO 32028G38KT
Conditions at: RJGG (NAGOYA/CHUBU , JP) observed 0400 UTC 22 March 2019
Temperature: 13.0°C (55°F)
Dewpoint: 6.0°C (43°F) [RH = 62%]
Pressure (altimeter): 29.73 inches Hg (1007.0 mb)
Winds: from the WNW (300 degrees) at 32 MPH (28 knots; 14.4 m/s)
Visibility: 6 or more miles (10+ km)
Ceiling: at least 12,000 feet AGL
Clouds: few clouds at 2000 feet AGL
Weather: no significant weather observed at this time

METAR text: RJGG 220330Z 31026KT 9999 FEW020 BKN/// 13/05 Q1007 TEMPO 32028G38KT
Conditions at: RJGG (NAGOYA/CHUBU , JP) observed 0330 UTC 22 March 2019
Temperature: 13.0°C (55°F)
Dewpoint: 5.0°C (41°F) [RH = 58%]
Pressure (altimeter): 29.73 inches Hg (1007.0 mb)
Winds: from the NW (310 degrees) at 30 MPH (26 knots; 13.4 m/s)
Visibility: 6 or more miles (10+ km)
Ceiling: at least 12,000 feet AGL
Clouds: few clouds at 2000 feet AGL
Weather: no significant weather observed at this time

METAR text: RJGG 220300Z 31029KT 9999 FEW020 BKN/// 13/05 Q1007 TEMPO 32028G38KT
Conditions at: RJGG (NAGOYA/CHUBU , JP) observed 0300 UTC 22 March 2019
Temperature: 13.0°C (55°F)
Dewpoint: 5.0°C (41°F) [RH = 58%]
Pressure (altimeter): 29.73 inches Hg (1007.0 mb)
Winds: from the NW (310 degrees) at 33 MPH (29 knots; 14.9 m/s)
Visibility: 6 or more miles (10+ km)
Ceiling: at least 12,000 feet AGL
Clouds: few clouds at 2000 feet AGL
Weather: no significant weather observed at this time

METAR text: RJGG 220230Z 31028KT 9999 FEW020 BKN/// 14/06 Q1007 NOSIG
Conditions at: RJGG (NAGOYA/CHUBU , JP) observed 0230 UTC 22 March 2019
Temperature: 14.0°C (57°F)
Dewpoint: 6.0°C (43°F) [RH = 58%]
Pressure (altimeter): 29.73 inches Hg (1007.0 mb)
Winds: from the NW (310 degrees) at 32 MPH (28 knots; 14.4 m/s)
Visibility: 6 or more miles (10+ km)
Ceiling: at least 12,000 feet AGL
Clouds: few clouds at 2000 feet AGL
Weather: no significant weather observed at this time

METAR text: RJGG 220200Z 31027KT 9999 FEW020 BKN/// 14/06 Q1007 NOSIG
Conditions at: RJGG (NAGOYA/CHUBU , JP) observed 0200 UTC 22 March 2019
Temperature: 14.0°C (57°F)
Dewpoint: 6.0°C (43°F) [RH = 58%]
Pressure (altimeter): 29.73 inches Hg (1007.0 mb)
Winds: from the NW (310 degrees) at 31 MPH (27 knots; 13.9 m/s)
Visibility: 6 or more miles (10+ km)
Ceiling: at least 12,000 feet AGL
Clouds: few clouds at 2000 feet AGL
Weather: no significant weather observed at this time

METAR text: RJGG 220130Z 31023KT 9999 FEW020 BKN/// 14/07 Q1007 NOSIG
Conditions at: RJGG (NAGOYA/CHUBU , JP) observed 0130 UTC 22 March 2019
Temperature: 14.0°C (57°F)
Dewpoint: 7.0°C (45°F) [RH = 63%]
Pressure (altimeter): 29.73 inches Hg (1007.0 mb)
Winds: from the NW (310 degrees) at 26 MPH (23 knots; 11.8 m/s)
Visibility: 6 or more miles (10+ km)
Ceiling: at least 12,000 feet AGL
Clouds: few clouds at 2000 feet AGL
Weather: no significant weather observed at this time

METAR text: RJGG 220100Z 31024KT 9999 FEW020 BKN/// 14/07 Q1007 NOSIG
Conditions at: RJGG (NAGOYA/CHUBU , JP) observed 0100 UTC 22 March 2019
Temperature: 14.0°C (57°F)
Dewpoint: 7.0°C (45°F) [RH = 63%]
Pressure (altimeter): 29.73 inches Hg (1007.0 mb)
Winds: from the NW (310 degrees) at 28 MPH (24 knots; 12.3 m/s)
Visibility: 6 or more miles (10+ km)
Ceiling: at least 12,000 feet AGL
Clouds: few clouds at 2000 feet AGL
Weather: no significant weather observed at this time

METAR text: RJGG 220030Z 31024KT 9999 FEW020 BKN/// 14/07 Q1007 NOSIG
Conditions at: RJGG (NAGOYA/CHUBU , JP) observed 0030 UTC 22 March 2019
Temperature: 14.0°C (57°F)
Dewpoint: 7.0°C (45°F) [RH = 63%]
Pressure (altimeter): 29.73 inches Hg (1007.0 mb)
Winds: from the NW (310 degrees) at 28 MPH (24 knots; 12.3 m/s)
Visibility: 6 or more miles (10+ km)
Ceiling: at least 12,000 feet AGL
Clouds: few clouds at 2000 feet AGL
Weather: no significant weather observed at this time

METAR text: RJGG 220000Z 31027KT 9999 FEW020 BKN/// 13/08 Q1006 NOSIG
Conditions at: RJGG (NAGOYA/CHUBU , JP) observed 0000 UTC 22 March 2019
Temperature: 13.0°C (55°F)
Dewpoint: 8.0°C (46°F) [RH = 72%]
Pressure (altimeter): 29.70 inches Hg (1006.0 mb)
Winds: from the NW (310 degrees) at 31 MPH (27 knots; 13.9 m/s)
Visibility: 6 or more miles (10+ km)
Ceiling: at least 12,000 feet AGL
Clouds: few clouds at 2000 feet AGL
Weather: no significant weather observed at this time

METAR text: RJGG 212330Z 31024KT 9999 FEW020 14/08 Q1005 NOSIG
Conditions at: RJGG (NAGOYA/CHUBU , JP) observed 2330 UTC 21 March 2019
Temperature: 14.0°C (57°F)
Dewpoint: 8.0°C (46°F) [RH = 67%]
Pressure (altimeter): 29.68 inches Hg (1005.0 mb)
Winds: from the NW (310 degrees) at 28 MPH (24 knots; 12.3 m/s)
Visibility: 6 or more miles (10+ km)
Ceiling: at least 12,000 feet AGL
Clouds: few clouds at 2000 feet AGL
Weather: no significant weather observed at this time

METAR text: RJGG 212300Z 32025KT 9999 FEW020 SCT050 14/08 Q1006 NOSIG
Conditions at: RJGG (NAGOYA/CHUBU , JP) observed 2300 UTC 21 March 2019
Temperature: 14.0°C (57°F)
Dewpoint: 8.0°C (46°F) [RH = 67%]
Pressure (altimeter): 29.70 inches Hg (1006.0 mb)
Winds: from the NW (320 degrees) at 29 MPH (25 knots; 12.9 m/s)
Visibility: 6 or more miles (10+ km)
Ceiling: at least 12,000 feet AGL
Clouds: few clouds at 2000 feet AGL
scattered clouds at 5000 feet AGL
Weather: no significant weather observed at this time

METAR text: RJGG 212230Z 33023KT 9999 FEW020 BKN070 14/08 Q1006 NOSIG
Conditions at: RJGG (NAGOYA/CHUBU , JP) observed 2230 UTC 21 March 2019
Temperature: 14.0°C (57°F)
Dewpoint: 8.0°C (46°F) [RH = 67%]
Pressure (altimeter): 29.70 inches Hg (1006.0 mb)
Winds: from the NNW (330 degrees) at 26 MPH (23 knots; 11.8 m/s)
Visibility: 6 or more miles (10+ km)
Ceiling: 7000 feet AGL
Clouds: few clouds at 2000 feet AGL
broken clouds at 7000 feet AGL
Weather: no significant weather observed at this time

METAR text: RJGG 212200Z 32027KT 9999 FEW020 SCT050 BKN070 14/08 Q1005 NOSIG
Conditions at: RJGG (NAGOYA/CHUBU , JP) observed 2200 UTC 21 March 2019
Temperature: 14.0°C (57°F)
Dewpoint: 8.0°C (46°F) [RH = 67%]
Pressure (altimeter): 29.68 inches Hg (1005.0 mb)
Winds: from the NW (320 degrees) at 31 MPH (27 knots; 13.9 m/s)
Visibility: 6 or more miles (10+ km)
Ceiling: 7000 feet AGL
Clouds: few clouds at 2000 feet AGL
scattered clouds at 5000 feet AGL
broken clouds at 7000 feet AGL
Weather: no significant weather observed at this time

METAR text: RJGG 212130Z 33018KT 9999 FEW020 BKN050 14/08 Q1006 NOSIG
Conditions at: RJGG (NAGOYA/CHUBU , JP) observed 2130 UTC 21 March 2019
Temperature: 14.0°C (57°F)
Dewpoint: 8.0°C (46°F) [RH = 67%]
Pressure (altimeter): 29.70 inches Hg (1006.0 mb)
Winds: from the NNW (330 degrees) at 21 MPH (18 knots; 9.3 m/s)
Visibility: 6 or more miles (10+ km)
Ceiling: 5000 feet AGL
Clouds: few clouds at 2000 feet AGL
broken clouds at 5000 feet AGL
Weather: no significant weather observed at this time

METAR text: RJGG 212100Z 32021KT 9999 FEW020 BKN050 BKN150 14/09 Q1005 NOSIG
Conditions at: RJGG (NAGOYA/CHUBU , JP) observed 2100 UTC 21 March 2019
Temperature: 14.0°C (57°F)
Dewpoint: 9.0°C (48°F) [RH = 72%]
Pressure (altimeter): 29.68 inches Hg (1005.0 mb)
Winds: from the NW (320 degrees) at 24 MPH (21 knots; 10.8 m/s)
Visibility: 6 or more miles (10+ km)
Ceiling: 5000 feet AGL
Clouds: few clouds at 2000 feet AGL
broken clouds at 5000 feet AGL
broken clouds at 15000 feet AGL
Weather: no significant weather observed at this time

METAR text: RJGG 212030Z 32023KT 9999 FEW020 BKN050 14/09 Q1004 NOSIG
Conditions at: RJGG (NAGOYA/CHUBU , JP) observed 2030 UTC 21 March 2019
Temperature: 14.0°C (57°F)
Dewpoint: 9.0°C (48°F) [RH = 72%]
Pressure (altimeter): 29.65 inches Hg (1004.0 mb)
Winds: from the NW (320 degrees) at 26 MPH (23 knots; 11.8 m/s)
Visibility: 6 or more miles (10+ km)
Ceiling: 5000 feet AGL
Clouds: few clouds at 2000 feet AGL
broken clouds at 5000 feet AGL
Weather: no significant weather observed at this time

METAR text: RJGG 212000Z 33020KT 9999 FEW020 BKN050 15/10 Q1004 NOSIG
Conditions at: RJGG (NAGOYA/CHUBU , JP) observed 2000 UTC 21 March 2019
Temperature: 15.0°C (59°F)
Dewpoint: 10.0°C (50°F) [RH = 72%]
Pressure (altimeter): 29.65 inches Hg (1004.0 mb)
Winds: from the NNW (330 degrees) at 23 MPH (20 knots; 10.3 m/s)
Visibility: 6 or more miles (10+ km)
Ceiling: 5000 feet AGL
Clouds: few clouds at 2000 feet AGL
broken clouds at 5000 feet AGL
Weather: no significant weather observed at this time

METAR text: RJGG 211930Z 33020KT 9999 FEW020 BKN050 15/10 Q1003 NOSIG
Conditions at: RJGG (NAGOYA/CHUBU , JP) observed 1930 UTC 21 March 2019
Temperature: 15.0°C (59°F)
Dewpoint: 10.0°C (50°F) [RH = 72%]
Pressure (altimeter): 29.62 inches Hg (1003.0 mb)
Winds: from the NNW (330 degrees) at 23 MPH (20 knots; 10.3 m/s)
Visibility: 6 or more miles (10+ km)
Ceiling: 5000 feet AGL
Clouds: few clouds at 2000 feet AGL
broken clouds at 5000 feet AGL
Weather: no significant weather observed at this time

METAR text: RJGG 211900Z 33020KT 9999 FEW020 BKN040 BKN160 15/11 Q1003 NOSIG
Conditions at: RJGG (NAGOYA/CHUBU , JP) observed 1900 UTC 21 March 2019
Temperature: 15.0°C (59°F)
Dewpoint: 11.0°C (52°F) [RH = 77%]
Pressure (altimeter): 29.62 inches Hg (1003.0 mb)
Winds: from the NNW (330 degrees) at 23 MPH (20 knots; 10.3 m/s)
Visibility: 6 or more miles (10+ km)
Ceiling: 4000 feet AGL
Clouds: few clouds at 2000 feet AGL
broken clouds at 4000 feet AGL
broken clouds at 16000 feet AGL
Weather: no significant weather observed at this time

METAR text: RJGG 211830Z 33021KT 9999 FEW020 BKN160 14/11 Q1003 NOSIG
Conditions at: RJGG (NAGOYA/CHUBU , JP) observed 1830 UTC 21 March 2019
Temperature: 14.0°C (57°F)
Dewpoint: 11.0°C (52°F) [RH = 82%]
Pressure (altimeter): 29.62 inches Hg (1003.0 mb)
Winds: from the NNW (330 degrees) at 24 MPH (21 knots; 10.8 m/s)
Visibility: 6 or more miles (10+ km)
Ceiling: 16000 feet AGL
Clouds: few clouds at 2000 feet AGL
broken clouds at 16000 feet AGL
Weather: no significant weather observed at this time

METAR text: RJGG 211800Z 33019KT 9999 FEW010 SCT050 BKN/// 14/12 Q1004 NOSIG
Conditions at: RJGG (NAGOYA/CHUBU , JP) observed 1800 UTC 21 March 2019
Temperature: 14.0°C (57°F)
Dewpoint: 12.0°C (54°F) [RH = 88%]
Pressure (altimeter): 29.65 inches Hg (1004.0 mb)
Winds: from the NNW (330 degrees) at 22 MPH (19 knots; 9.8 m/s)
Visibility: 6 or more miles (10+ km)
Ceiling: at least 12,000 feet AGL
Clouds: few clouds at 1000 feet AGL
scattered clouds at 5000 feet AGL
Weather: no significant weather observed at this time

METAR text: RJGG 211730Z 34012KT 9999 FEW010 BKN/// 15/13 Q1004 NOSIG
Conditions at: RJGG (NAGOYA/CHUBU , JP) observed 1730 UTC 21 March 2019
Temperature: 15.0°C (59°F)
Dewpoint: 13.0°C (55°F) [RH = 88%]
Pressure (altimeter): 29.65 inches Hg (1004.0 mb)
Winds: from the NNW (340 degrees) at 14 MPH (12 knots; 6.2 m/s)
Visibility: 6 or more miles (10+ km)
Ceiling: at least 12,000 feet AGL
Clouds: few clouds at 1000 feet AGL
Weather: no significant weather observed at this time

METAR text: RJGG 211700Z 33009KT 7000 FEW008 SCT010 BKN020 14/13 Q1004 NOSIG
Conditions at: RJGG (NAGOYA/CHUBU , JP) observed 1700 UTC 21 March 2019
Temperature: 14.0°C (57°F)
Dewpoint: 13.0°C (55°F) [RH = 94%]
Pressure (altimeter): 29.65 inches Hg (1004.0 mb)
Winds: from the NNW (330 degrees) at 10 MPH (9 knots; 4.6 m/s)
Visibility: 4 miles ( 7 km)
Ceiling: 2000 feet AGL
Clouds: few clouds at 800 feet AGL
scattered clouds at 1000 feet AGL
broken clouds at 2000 feet AGL
Weather: no significant weather observed at this time

METAR text: RJGG 211630Z 33006KT 6000 FEW008 BKN010 14/13 Q1004 NOSIG
Conditions at: RJGG (NAGOYA/CHUBU , JP) observed 1630 UTC 21 March 2019
Temperature: 14.0°C (57°F)
Dewpoint: 13.0°C (55°F) [RH = 94%]
Pressure (altimeter): 29.65 inches Hg (1004.0 mb)
Winds: from the NNW (330 degrees) at 7 MPH (6 knots; 3.1 m/s)
Visibility: 4 miles ( 6 km)
Ceiling: 1000 feet AGL
Clouds: few clouds at 800 feet AGL
broken clouds at 1000 feet AGL
Weather: no significant weather observed at this time

METAR text: RJGG 211600Z 33006KT 6000 FEW008 BKN010 14/13 Q1004 NOSIG
Conditions at: RJGG (NAGOYA/CHUBU , JP) observed 1600 UTC 21 March 2019
Temperature: 14.0°C (57°F)
Dewpoint: 13.0°C (55°F) [RH = 94%]
Pressure (altimeter): 29.65 inches Hg (1004.0 mb)
Winds: from the NNW (330 degrees) at 7 MPH (6 knots; 3.1 m/s)
Visibility: 4 miles ( 6 km)
Ceiling: 1000 feet AGL
Clouds: few clouds at 800 feet AGL
broken clouds at 1000 feet AGL
Weather: no significant weather observed at this time

METAR text: RJGG 211530Z 36009KT 6000 FEW008 BKN010 15/14 Q1004 NOSIG
Conditions at: RJGG (NAGOYA/CHUBU , JP) observed 1530 UTC 21 March 2019
Temperature: 15.0°C (59°F)
Dewpoint: 14.0°C (57°F) [RH = 94%]
Pressure (altimeter): 29.65 inches Hg (1004.0 mb)
Winds: from the N (360 degrees) at 10 MPH (9 knots; 4.6 m/s)
Visibility: 4 miles ( 6 km)
Ceiling: 1000 feet AGL
Clouds: few clouds at 800 feet AGL
broken clouds at 1000 feet AGL
Weather: no significant weather observed at this time

METAR text: RJGG 211500Z VRB02KT 7000 FEW010 BKN/// 14/13 Q1004 BECMG 32012KT
Conditions at: RJGG (NAGOYA/CHUBU , JP) observed 1500 UTC 21 March 2019
Temperature: 14.0°C (57°F)
Dewpoint: 13.0°C (55°F) [RH = 94%]
Pressure (altimeter): 29.65 inches Hg (1004.0 mb)
Winds: variable direction winds at 2 MPH (2 knots; 1.0 m/s)
Visibility: 4 miles ( 7 km)
Ceiling: at least 12,000 feet AGL
Clouds: few clouds at 1000 feet AGL
Weather: no significant weather observed at this time

METAR text: RJGG 211430Z 36011KT 7000 FEW010 BKN/// 15/13 Q1004 NOSIG
Conditions at: RJGG (NAGOYA/CHUBU , JP) observed 1430 UTC 21 March 2019
Temperature: 15.0°C (59°F)
Dewpoint: 13.0°C (55°F) [RH = 88%]
Pressure (altimeter): 29.65 inches Hg (1004.0 mb)
Winds: from the N (360 degrees) at 13 MPH (11 knots; 5.7 m/s)
Visibility: 4 miles ( 7 km)
Ceiling: at least 12,000 feet AGL
Clouds: few clouds at 1000 feet AGL
Weather: no significant weather observed at this time

METAR text: RJGG 211400Z 36010KT 7000 SCT008 BKN035 15/14 Q1005 NOSIG
Conditions at: RJGG (NAGOYA/CHUBU , JP) observed 1400 UTC 21 March 2019
Temperature: 15.0°C (59°F)
Dewpoint: 14.0°C (57°F) [RH = 94%]
Pressure (altimeter): 29.68 inches Hg (1005.0 mb)
Winds: from the N (360 degrees) at 12 MPH (10 knots; 5.1 m/s)
Visibility: 4 miles ( 7 km)
Ceiling: 3500 feet AGL
Clouds: scattered clouds at 800 feet AGL
broken clouds at 3500 feet AGL
Weather: no significant weather observed at this time

METAR text: RJGG 211330Z 36009KT 8000 FEW008 BKN035 BKN/// 15/13 Q1005 NOSIG
Conditions at: RJGG (NAGOYA/CHUBU , JP) observed 1330 UTC 21 March 2019
Temperature: 15.0°C (59°F)
Dewpoint: 13.0°C (55°F) [RH = 88%]
Pressure (altimeter): 29.68 inches Hg (1005.0 mb)
Winds: from the N (360 degrees) at 10 MPH (9 knots; 4.6 m/s)
Visibility: 5 miles ( 8 km)
Ceiling: 3500 feet AGL
Clouds: few clouds at 800 feet AGL
broken clouds at 3500 feet AGL
Weather: no significant weather observed at this time

METAR text: RJGG 211300Z 01007KT 9000 FEW010 SCT035 BKN/// 15/13 Q1005 NOSIG
Conditions at: RJGG (NAGOYA/CHUBU , JP) observed 1300 UTC 21 March 2019
Temperature: 15.0°C (59°F)
Dewpoint: 13.0°C (55°F) [RH = 88%]
Pressure (altimeter): 29.68 inches Hg (1005.0 mb)
Winds: from the N (10 degrees) at 8 MPH (7 knots; 3.6 m/s)
Visibility: 6 miles ( 9 km)
Ceiling: at least 12,000 feet AGL
Clouds: few clouds at 1000 feet AGL
scattered clouds at 3500 feet AGL
Weather: no significant weather observed at this time

METAR text: RJGG 211230Z 36009KT 9000 FEW010 SCT040 BKN/// 15/13 Q1005 NOSIG
Conditions at: RJGG (NAGOYA/CHUBU , JP) observed 1230 UTC 21 March 2019
Temperature: 15.0°C (59°F)
Dewpoint: 13.0°C (55°F) [RH = 88%]
Pressure (altimeter): 29.68 inches Hg (1005.0 mb)
Winds: from the N (360 degrees) at 10 MPH (9 knots; 4.6 m/s)
Visibility: 6 miles ( 9 km)
Ceiling: at least 12,000 feet AGL
Clouds: few clouds at 1000 feet AGL
scattered clouds at 4000 feet AGL
Weather: no significant weather observed at this time

METAR text: RJGG 211200Z 36010KT 9000 FEW010 SCT040 14/13 Q1005 NOSIG
Conditions at: RJGG (NAGOYA/CHUBU , JP) observed 1200 UTC 21 March 2019
Temperature: 14.0°C (57°F)
Dewpoint: 13.0°C (55°F) [RH = 94%]
Pressure (altimeter): 29.68 inches Hg (1005.0 mb)
Winds: from the N (360 degrees) at 12 MPH (10 knots; 5.1 m/s)
Visibility: 6 miles ( 9 km)
Ceiling: at least 12,000 feet AGL
Clouds: few clouds at 1000 feet AGL
scattered clouds at 4000 feet AGL
Weather: no significant weather observed at this time

METAR text: RJGG 211130Z 35005KT 310V040 9999 FEW010 BKN020 15/13 Q1005 NOSIG
Conditions at: RJGG (NAGOYA/CHUBU , JP) observed 1130 UTC 21 March 2019
Temperature: 15.0°C (59°F)
Dewpoint: 13.0°C (55°F) [RH = 88%]
Pressure (altimeter): 29.68 inches Hg (1005.0 mb)
Winds: from the N (350 degrees) at 6 MPH (5 knots; 2.6 m/s)
Visibility: 6 or more miles (10+ km)
Ceiling: 2000 feet AGL
Clouds: few clouds at 1000 feet AGL
broken clouds at 2000 feet AGL
Weather: no significant weather observed at this time

METAR text: RJGG 211100Z 09005KT 9999 FEW010 BKN020 15/13 Q1005 BECMG 04006KT
Conditions at: RJGG (NAGOYA/CHUBU , JP) observed 1100 UTC 21 March 2019
Temperature: 15.0°C (59°F)
Dewpoint: 13.0°C (55°F) [RH = 88%]
Pressure (altimeter): 29.68 inches Hg (1005.0 mb)
Winds: from the E (90 degrees) at 6 MPH (5 knots; 2.6 m/s)
Visibility: 6 or more miles (10+ km)
Ceiling: 2000 feet AGL
Clouds: few clouds at 1000 feet AGL
broken clouds at 2000 feet AGL
Weather: no significant weather observed at this time

METAR text: RJGG 211030Z VRB02KT 9999 FEW010 BKN020 17/15 Q1005 BECMG 04006KT
Conditions at: RJGG (NAGOYA/CHUBU , JP) observed 1030 UTC 21 March 2019
Temperature: 17.0°C (63°F)
Dewpoint: 15.0°C (59°F) [RH = 88%]
Pressure (altimeter): 29.68 inches Hg (1005.0 mb)
Winds: variable direction winds at 2 MPH (2 knots; 1.0 m/s)
Visibility: 6 or more miles (10+ km)
Ceiling: 2000 feet AGL
Clouds: few clouds at 1000 feet AGL
broken clouds at 2000 feet AGL
Weather: no significant weather observed at this time

METAR text: RJGG 211000Z 12005KT 9999 FEW010 SCT020 BKN080 17/15 Q1005 NOSIG
Conditions at: RJGG (NAGOYA/CHUBU , JP) observed 1000 UTC 21 March 2019
Temperature: 17.0°C (63°F)
Dewpoint: 15.0°C (59°F) [RH = 88%]
Pressure (altimeter): 29.68 inches Hg (1005.0 mb)
Winds: from the ESE (120 degrees) at 6 MPH (5 knots; 2.6 m/s)
Visibility: 6 or more miles (10+ km)
Ceiling: 8000 feet AGL
Clouds: few clouds at 1000 feet AGL
scattered clouds at 2000 feet AGL
broken clouds at 8000 feet AGL
Weather: no significant weather observed at this time

METAR text: RJGG 210930Z 16007KT 9999 FEW020 SCT050 BKN080 16/14 Q1005 NOSIG
Conditions at: RJGG (NAGOYA/CHUBU , JP) observed 0930 UTC 21 March 2019
Temperature: 16.0°C (61°F)
Dewpoint: 14.0°C (57°F) [RH = 88%]
Pressure (altimeter): 29.68 inches Hg (1005.0 mb)
Winds: from the SSE (160 degrees) at 8 MPH (7 knots; 3.6 m/s)
Visibility: 6 or more miles (10+ km)
Ceiling: 8000 feet AGL
Clouds: few clouds at 2000 feet AGL
scattered clouds at 5000 feet AGL
broken clouds at 8000 feet AGL
Weather: no significant weather observed at this time

METAR text: RJGG 210900Z 17009KT 9999 FEW020 BKN050 17/14 Q1005 NOSIG
Conditions at: RJGG (NAGOYA/CHUBU , JP) observed 0900 UTC 21 March 2019
Temperature: 17.0°C (63°F)
Dewpoint: 14.0°C (57°F) [RH = 82%]
Pressure (altimeter): 29.68 inches Hg (1005.0 mb)
Winds: from the S (170 degrees) at 10 MPH (9 knots; 4.6 m/s)
Visibility: 6 or more miles (10+ km)
Ceiling: 5000 feet AGL
Clouds: few clouds at 2000 feet AGL
broken clouds at 5000 feet AGL
Weather: no significant weather observed at this time

METAR text: RJGG 210830Z 15011KT 9999 FEW020 BKN050 17/14 Q1005 NOSIG
Conditions at: RJGG (NAGOYA/CHUBU , JP) observed 0830 UTC 21 March 2019
Temperature: 17.0°C (63°F)
Dewpoint: 14.0°C (57°F) [RH = 82%]
Pressure (altimeter): 29.68 inches Hg (1005.0 mb)
Winds: from the SSE (150 degrees) at 13 MPH (11 knots; 5.7 m/s)
Visibility: 6 or more miles (10+ km)
Ceiling: 5000 feet AGL
Clouds: few clouds at 2000 feet AGL
broken clouds at 5000 feet AGL
Weather: no significant weather observed at this time

METAR text: RJGG 210800Z 16010KT 9999 FEW020 BKN050 16/13 Q1005 NOSIG
Conditions at: RJGG (NAGOYA/CHUBU , JP) observed 0800 UTC 21 March 2019
Temperature: 16.0°C (61°F)
Dewpoint: 13.0°C (55°F) [RH = 82%]
Pressure (altimeter): 29.68 inches Hg (1005.0 mb)
Winds: from the SSE (160 degrees) at 12 MPH (10 knots; 5.1 m/s)
Visibility: 6 or more miles (10+ km)
Ceiling: 5000 feet AGL
Clouds: few clouds at 2000 feet AGL
broken clouds at 5000 feet AGL
Weather: no significant weather observed at this time

METAR text: RJGG 210730Z 15009KT 9999 FEW020 BKN050 17/14 Q1005 NOSIG
Conditions at: RJGG (NAGOYA/CHUBU , JP) observed 0730 UTC 21 March 2019
Temperature: 17.0°C (63°F)
Dewpoint: 14.0°C (57°F) [RH = 82%]
Pressure (altimeter): 29.68 inches Hg (1005.0 mb)
Winds: from the SSE (150 degrees) at 10 MPH (9 knots; 4.6 m/s)
Visibility: 6 or more miles (10+ km)
Ceiling: 5000 feet AGL
Clouds: few clouds at 2000 feet AGL
broken clouds at 5000 feet AGL
Weather: no significant weather observed at this time

METAR text: RJGG 210700Z 16011KT 9999 FEW020 BKN050 18/14 Q1005 NOSIG
Conditions at: RJGG (NAGOYA/CHUBU , JP) observed 0700 UTC 21 March 2019
Temperature: 18.0°C (64°F)
Dewpoint: 14.0°C (57°F) [RH = 77%]
Pressure (altimeter): 29.68 inches Hg (1005.0 mb)
Winds: from the SSE (160 degrees) at 13 MPH (11 knots; 5.7 m/s)
Visibility: 6 or more miles (10+ km)
Ceiling: 5000 feet AGL
Clouds: few clouds at 2000 feet AGL
broken clouds at 5000 feet AGL
Weather: no significant weather observed at this time

METAR text: RJGG 210630Z 16005KT 130V200 9999 FEW020 SCT050 BKN070 17/13 Q1005 NOSIG
Conditions at: RJGG (NAGOYA/CHUBU , JP) observed 0630 UTC 21 March 2019
Temperature: 17.0°C (63°F)
Dewpoint: 13.0°C (55°F) [RH = 77%]
Pressure (altimeter): 29.68 inches Hg (1005.0 mb)
Winds: from the SSE (160 degrees) at 6 MPH (5 knots; 2.6 m/s)
Visibility: 6 or more miles (10+ km)
Ceiling: 7000 feet AGL
Clouds: few clouds at 2000 feet AGL
scattered clouds at 5000 feet AGL
broken clouds at 7000 feet AGL
Weather: no significant weather observed at this time

METAR text: RJGG 210600Z 15011KT 9999 FEW020 BKN060 BKN/// 20/14 Q1005 NOSIG
Conditions at: RJGG (NAGOYA/CHUBU , JP) observed 0600 UTC 21 March 2019
Temperature: 20.0°C (68°F)
Dewpoint: 14.0°C (57°F) [RH = 68%]
Pressure (altimeter): 29.68 inches Hg (1005.0 mb)
Winds: from the SSE (150 degrees) at 13 MPH (11 knots; 5.7 m/s)
Visibility: 6 or more miles (10+ km)
Ceiling: 6000 feet AGL
Clouds: few clouds at 2000 feet AGL
broken clouds at 6000 feet AGL
Weather: no significant weather observed at this time

METAR text: RJGG 210530Z 17013KT 9999 FEW020 SCT050 BKN/// 19/13 Q1006 NOSIG
Conditions at: RJGG (NAGOYA/CHUBU , JP) observed 0530 UTC 21 March 2019
Temperature: 19.0°C (66°F)
Dewpoint: 13.0°C (55°F) [RH = 68%]
Pressure (altimeter): 29.70 inches Hg (1006.0 mb)
Winds: from the S (170 degrees) at 15 MPH (13 knots; 6.7 m/s)
Visibility: 6 or more miles (10+ km)
Ceiling: at least 12,000 feet AGL
Clouds: few clouds at 2000 feet AGL
scattered clouds at 5000 feet AGL
Weather: no significant weather observed at this time

METAR text: RJGG 210500Z 15011KT 9999 FEW020 BKN060 BKN100 18/13 Q1006 NOSIG
Conditions at: RJGG (NAGOYA/CHUBU , JP) observed 0500 UTC 21 March 2019
Temperature: 18.0°C (64°F)
Dewpoint: 13.0°C (55°F) [RH = 73%]
Pressure (altimeter): 29.70 inches Hg (1006.0 mb)
Winds: from the SSE (150 degrees) at 13 MPH (11 knots; 5.7 m/s)
Visibility: 6 or more miles (10+ km)
Ceiling: 6000 feet AGL
Clouds: few clouds at 2000 feet AGL
broken clouds at 6000 feet AGL
broken clouds at 10000 feet AGL
Weather: no significant weather observed at this time

METAR text: RJGG 210430Z 15015KT 9999 FEW020 SCT070 BKN100 20/13 Q1006 NOSIG
Conditions at: RJGG (NAGOYA/CHUBU , JP) observed 0430 UTC 21 March 2019
Temperature: 20.0°C (68°F)
Dewpoint: 13.0°C (55°F) [RH = 64%]
Pressure (altimeter): 29.70 inches Hg (1006.0 mb)
Winds: from the SSE (150 degrees) at 17 MPH (15 knots; 7.7 m/s)
Visibility: 6 or more miles (10+ km)
Ceiling: 10000 feet AGL
Clouds: few clouds at 2000 feet AGL
scattered clouds at 7000 feet AGL
broken clouds at 10000 feet AGL
Weather: no significant weather observed at this time

METAR text: RJGG 210400Z 16015KT 9999 FEW020 BKN070 18/13 Q1007 NOSIG
Conditions at: RJGG (NAGOYA/CHUBU , JP) observed 0400 UTC 21 March 2019
Temperature: 18.0°C (64°F)
Dewpoint: 13.0°C (55°F) [RH = 73%]
Pressure (altimeter): 29.73 inches Hg (1007.0 mb)
Winds: from the SSE (160 degrees) at 17 MPH (15 knots; 7.7 m/s)
Visibility: 6 or more miles (10+ km)
Ceiling: 7000 feet AGL
Clouds: few clouds at 2000 feet AGL
broken clouds at 7000 feet AGL
Weather: no significant weather observed at this time

METAR text: RJGG 210330Z 15014KT 9999 FEW020 SCT080 19/13 Q1007 NOSIG
Conditions at: RJGG (NAGOYA/CHUBU , JP) observed 0330 UTC 21 March 2019
Temperature: 19.0°C (66°F)
Dewpoint: 13.0°C (55°F) [RH = 68%]
Pressure (altimeter): 29.73 inches Hg (1007.0 mb)
Winds: from the SSE (150 degrees) at 16 MPH (14 knots; 7.2 m/s)
Visibility: 6 or more miles (10+ km)
Ceiling: at least 12,000 feet AGL
Clouds: few clouds at 2000 feet AGL
scattered clouds at 8000 feet AGL
Weather: no significant weather observed at this time

METAR text: RJGG 210300Z 16014KT 9999 FEW020 SCT070 19/13 Q1008 NOSIG
Conditions at: RJGG (NAGOYA/CHUBU , JP) observed 0300 UTC 21 March 2019
Temperature: 19.0°C (66°F)
Dewpoint: 13.0°C (55°F) [RH = 68%]
Pressure (altimeter): 29.76 inches Hg (1008.0 mb)
Winds: from the SSE (160 degrees) at 16 MPH (14 knots; 7.2 m/s)
Visibility: 6 or more miles (10+ km)
Ceiling: at least 12,000 feet AGL
Clouds: few clouds at 2000 feet AGL
scattered clouds at 7000 feet AGL
Weather: no significant weather observed at this time

METAR text: RJGG 210230Z 13011KT 9999 FEW015 SCT070 BKN/// 18/14 Q1008 BECMG 16021KT
Conditions at: RJGG (NAGOYA/CHUBU , JP) observed 0230 UTC 21 March 2019
Temperature: 18.0°C (64°F)
Dewpoint: 14.0°C (57°F) [RH = 77%]
Pressure (altimeter): 29.76 inches Hg (1008.0 mb)
Winds: from the SE (130 degrees) at 13 MPH (11 knots; 5.7 m/s)
Visibility: 6 or more miles (10+ km)
Ceiling: at least 12,000 feet AGL
Clouds: few clouds at 1500 feet AGL
scattered clouds at 7000 feet AGL
Weather: no significant weather observed at this time

METAR text: RJGG 210200Z 15012KT 9999 FEW015 SCT030 BKN070 17/13 Q1009 NOSIG
Conditions at: RJGG (NAGOYA/CHUBU , JP) observed 0200 UTC 21 March 2019
Temperature: 17.0°C (63°F)
Dewpoint: 13.0°C (55°F) [RH = 77%]
Pressure (altimeter): 29.79 inches Hg (1009.0 mb)
Winds: from the SSE (150 degrees) at 14 MPH (12 knots; 6.2 m/s)
Visibility: 6 or more miles (10+ km)
Ceiling: 7000 feet AGL
Clouds: few clouds at 1500 feet AGL
scattered clouds at 3000 feet AGL
broken clouds at 7000 feet AGL
Weather: no significant weather observed at this time

METAR text: RJGG 210130Z 15013KT 9999 FEW015 SCT035 BKN080 17/13 Q1009 NOSIG
Conditions at: RJGG (NAGOYA/CHUBU , JP) observed 0130 UTC 21 March 2019
Temperature: 17.0°C (63°F)
Dewpoint: 13.0°C (55°F) [RH = 77%]
Pressure (altimeter): 29.79 inches Hg (1009.0 mb)
Winds: from the SSE (150 degrees) at 15 MPH (13 knots; 6.7 m/s)
Visibility: 6 or more miles (10+ km)
Ceiling: 8000 feet AGL
Clouds: few clouds at 1500 feet AGL
scattered clouds at 3500 feet AGL
broken clouds at 8000 feet AGL
Weather: no significant weather observed at this time

METAR text: RJGG 210100Z 15010KT 9999 -SHRA FEW012 BKN035 16/13 Q1010 NOSIG
Conditions at: RJGG (NAGOYA/CHUBU , JP) observed 0100 UTC 21 March 2019
Temperature: 16.0°C (61°F)
Dewpoint: 13.0°C (55°F) [RH = 82%]
Pressure (altimeter): 29.82 inches Hg (1010.0 mb)
Winds: from the SSE (150 degrees) at 12 MPH (10 knots; 5.1 m/s)
Visibility: 6 or more miles (10+ km)
Ceiling: 3500 feet AGL
Clouds: few clouds at 1200 feet AGL
broken clouds at 3500 feet AGL
Weather: -SHRA  (light rain showers)

METAR text: RJGG 210030Z 16012KT 9999 -SHRA FEW015 BKN030 15/12 Q1010 NOSIG
Conditions at: RJGG (NAGOYA/CHUBU , JP) observed 0030 UTC 21 March 2019
Temperature: 15.0°C (59°F)
Dewpoint: 12.0°C (54°F) [RH = 82%]
Pressure (altimeter): 29.82 inches Hg (1010.0 mb)
Winds: from the SSE (160 degrees) at 14 MPH (12 knots; 6.2 m/s)
Visibility: 6 or more miles (10+ km)
Ceiling: 3000 feet AGL
Clouds: few clouds at 1500 feet AGL
broken clouds at 3000 feet AGL
Weather: -SHRA  (light rain showers)

Forecast for: RJGG (NAGOYA/CHUBU , JP)
Text: TAF RJGG 221105Z 2212/2318 31030KT 9999 FEW030
Forecast period: 1200 UTC 22 March 2019 to 0000 UTC 23 March 2019
Forecast type: FROM: standard forecast or significant change
Winds: from the NW (310 degrees) at 34 MPH (30 knots; 15.4 m/s)
Visibility: 6 or more miles 10+ km)
Ceiling: at least 12,000 feet AGL
Clouds: few clouds at 3000 feet AGL
Weather: no significant weather forecast for this period
Text: TEMPO 2212/2215 31034G45KT
Forecast period: 1200 to 1500 UTC 22 March 2019
Forecast type: TEMPORARY: The following changes expected for less than half the time period
Winds: from the NW (310 degrees) at 39 MPH (34 knots; 17.5 m/s)
gusting to 52 MPH (45 knots; 23.1 m/s)
Visibility: missing
Ceiling: unknown
Clouds: missing
Weather: no significant weather forecast for this period
Text: BECMG 2300/2303 32018KT
Forecast period: 0000 to 1800 UTC 23 March 2019
Forecast type: BECOMING: Conditions expected to become as follows by 0300 UTC 23 March 2019
Winds: from the NW (320 degrees) at 21 MPH (18 knots; 9.3 m/s)
Visibility: 6 or more miles 10+ km)
Ceiling: at least 12,000 feet AGL
Clouds: few clouds at 3000 feet AGL
Weather: no significant weather forecast for this period